sensor_id;sensor_type;location;lat;lon;timestamp;pressure;altitude;pressure_sealevel;temperature;humidity
79481;BME280;68944;48.262;14.208;2024-01-30T00:01:15;99977.13;;;-0.92;100.00
79481;BME280;68944;48.262;14.208;2024-01-30T00:03:40;99972.97;;;-0.94;100.00
79481;BME280;68944;48.262;14.208;2024-01-30T00:06:06;99968.19;;;-1.00;100.00
79481;BME280;68944;48.262;14.208;2024-01-30T00:08:32;99972.44;;;-0.99;100.00
79481;BME280;68944;48.262;14.208;2024-01-30T00:10:57;99973.56;;;-1.04;100.00
79481;BME280;68944;48.262;14.208;2024-01-30T00:13:23;99967.94;;;-1.10;100.00
79481;BME280;68944;48.262;14.208;2024-01-30T00:15:48;99972.63;;;-1.16;100.00
79481;BME280;68944;48.262;14.208;2024-01-30T00:18:14;99975.94;;;-1.27;100.00
79481;BME280;68944;48.262;14.208;2024-01-30T00:20:39;99987.97;;;-1.39;100.00
79481;BME280;68944;48.262;14.208;2024-01-30T00:23:05;99989.53;;;-1.49;100.00
79481;BME280;68944;48.262;14.208;2024-01-30T00:25:30;99985.16;;;-1.49;100.00
79481;BME280;68944;48.262;14.208;2024-01-30T00:27:56;99988.38;;;-1.45;100.00
79481;BME280;68944;48.262;14.208;2024-01-30T00:30:21;99991.19;;;-1.48;100.00
79481;BME280;68944;48.262;14.208;2024-01-30T00:32:47;99987.53;;;-1.45;100.00
79481;BME280;68944;48.262;14.208;2024-01-30T00:35:12;99983.28;;;-1.46;100.00
79481;BME280;68944;48.262;14.208;2024-01-30T00:37:38;99983.47;;;-1.50;100.00
79481;BME280;68944;48.262;14.208;2024-01-30T00:40:04;99978.09;;;-1.46;100.00
79481;BME280;68944;48.262;14.208;2024-01-30T00:42:31;99984.22;;;-1.47;100.00
79481;BME280;68944;48.262;14.208;2024-01-30T00:44:57;99983.28;;;-1.46;100.00
79481;BME280;68944;48.262;14.208;2024-01-30T00:47:22;99980.88;;;-1.50;100.00
79481;BME280;68944;48.262;14.208;2024-01-30T00:49:48;99982.88;;;-1.53;100.00
79481;BME280;68944;48.262;14.208;2024-01-30T00:52:14;99985.34;;;-1.52;100.00
79481;BME280;68944;48.262;14.208;2024-01-30T00:54:39;99985.94;;;-1.61;100.00
79481;BME280;68944;48.262;14.208;2024-01-30T00:57:04;99983.06;;;-1.56;100.00
79481;BME280;68944;48.262;14.208;2024-01-30T00:59:30;99990.31;;;-1.62;100.00
79481;BME280;68944;48.262;14.208;2024-01-30T01:01:55;99986.19;;;-1.51;100.00
79481;BME280;68944;48.262;14.208;2024-01-30T01:04:21;99972.16;;;-1.49;100.00
79481;BME280;68944;48.262;14.208;2024-01-30T01:06:47;99972.06;;;-1.47;100.00
79481;BME280;68944;48.262;14.208;2024-01-30T01:09:15;99965.09;;;-1.46;100.00
79481;BME280;68944;48.262;14.208;2024-01-30T01:11:41;99960.63;;;-1.44;100.00
79481;BME280;68944;48.262;14.208;2024-01-30T01:14:07;99956.28;;;-1.44;100.00
79481;BME280;68944;48.262;14.208;2024-01-30T01:16:33;99954.19;;;-1.39;100.00
79481;BME280;68944;48.262;14.208;2024-01-30T01:18:58;99963.53;;;-1.36;100.00
79481;BME280;68944;48.262;14.208;2024-01-30T01:21:26;99964.81;;;-1.29;100.00
79481;BME280;68944;48.262;14.208;2024-01-30T01:23:52;99957.75;;;-1.27;100.00
79481;BME280;68944;48.262;14.208;2024-01-30T01:26:17;99953.06;;;-1.21;100.00
79481;BME280;68944;48.262;14.208;2024-01-30T01:28:43;99955.44;;;-1.18;100.00
79481;BME280;68944;48.262;14.208;2024-01-30T01:31:08;99955.91;;;-1.11;100.00
79481;BME280;68944;48.262;14.208;2024-01-30T01:33:34;99951.41;;;-1.09;100.00
79481;BME280;68944;48.262;14.208;2024-01-30T01:36:02;99956.41;;;-1.06;100.00
79481;BME280;68944;48.262;14.208;2024-01-30T01:38:28;99946.84;;;-1.06;100.00
79481;BME280;68944;48.262;14.208;2024-01-30T01:40:54;99944.03;;;-1.02;100.00
79481;BME280;68944;48.262;14.208;2024-01-30T01:43:19;99947.44;;;-1.02;100.00
79481;BME280;68944;48.262;14.208;2024-01-30T01:45:45;99938.09;;;-1.05;100.00
79481;BME280;68944;48.262;14.208;2024-01-30T01:48:11;99936.31;;;-1.04;100.00
79481;BME280;68944;48.262;14.208;2024-01-30T01:50:38;99945.06;;;-1.05;100.00
79481;BME280;68944;48.262;14.208;2024-01-30T01:53:06;99953.28;;;-1.11;100.00
79481;BME280;68944;48.262;14.208;2024-01-30T01:55:33;99939.13;;;-1.20;100.00
79481;BME280;68944;48.262;14.208;2024-01-30T01:58:01;99943.81;;;-1.26;100.00
79481;BME280;68944;48.262;14.208;2024-01-30T02:00:26;99935.66;;;-1.34;100.00
79481;BME280;68944;48.262;14.208;2024-01-30T02:02:54;99941.53;;;-1.30;100.00
79481;BME280;68944;48.262;14.208;2024-01-30T02:05:21;99941.59;;;-1.32;100.00
79481;BME280;68944;48.262;14.208;2024-01-30T02:07:46;99937.13;;;-1.30;100.00
79481;BME280;68944;48.262;14.208;2024-01-30T02:10:12;99936.00;;;-1.26;100.00
79481;BME280;68944;48.262;14.208;2024-01-30T02:12:38;99936.75;;;-1.23;100.00
79481;BME280;68944;48.262;14.208;2024-01-30T02:15:04;99936.81;;;-1.25;100.00
79481;BME280;68944;48.262;14.208;2024-01-30T02:17:31;99934.31;;;-1.27;100.00
79481;BME280;68944;48.262;14.208;2024-01-30T02:19:57;99938.06;;;-1.31;100.00
79481;BME280;68944;48.262;14.208;2024-01-30T02:22:23;99936.63;;;-1.35;100.00
79481;BME280;68944;48.262;14.208;2024-01-30T02:24:49;99937.75;;;-1.39;100.00
79481;BME280;68944;48.262;14.208;2024-01-30T02:27:15;99935.16;;;-1.39;100.00
79481;BME280;68944;48.262;14.208;2024-01-30T02:29:40;99943.16;;;-1.42;100.00
79481;BME280;68944;48.262;14.208;2024-01-30T02:32:06;99950.22;;;-1.44;100.00
79481;BME280;68944;48.262;14.208;2024-01-30T02:34:33;99952.91;;;-1.46;100.00
79481;BME280;68944;48.262;14.208;2024-01-30T02:36:59;99950.00;;;-1.54;100.00
79481;BME280;68944;48.262;14.208;2024-01-30T02:39:25;99950.19;;;-1.57;100.00
79481;BME280;68944;48.262;14.208;2024-01-30T02:41:50;99958.81;;;-1.57;100.00
79481;BME280;68944;48.262;14.208;2024-01-30T02:44:16;99958.09;;;-1.59;100.00
79481;BME280;68944;48.262;14.208;2024-01-30T02:46:41;99954.56;;;-1.58;100.00
79481;BME280;68944;48.262;14.208;2024-01-30T02:49:07;99950.84;;;-1.54;100.00
79481;BME280;68944;48.262;14.208;2024-01-30T02:51:32;99949.78;;;-1.51;100.00
79481;BME280;68944;48.262;14.208;2024-01-30T02:53:58;99951.44;;;-1.50;100.00
79481;BME280;68944;48.262;14.208;2024-01-30T02:56:23;99958.94;;;-1.45;100.00
79481;BME280;68944;48.262;14.208;2024-01-30T02:58:49;99951.88;;;-1.43;100.00
79481;BME280;68944;48.262;14.208;2024-01-30T03:01:14;99953.03;;;-1.47;100.00
79481;BME280;68944;48.262;14.208;2024-01-30T03:03:40;99948.41;;;-1.57;100.00
79481;BME280;68944;48.262;14.208;2024-01-30T03:06:06;99946.34;;;-1.65;100.00
79481;BME280;68944;48.262;14.208;2024-01-30T03:08:32;99955.97;;;-1.67;100.00
79481;BME280;68944;48.262;14.208;2024-01-30T03:10:57;99960.53;;;-1.70;100.00
79481;BME280;68944;48.262;14.208;2024-01-30T03:13:23;99960.00;;;-1.76;100.00
79481;BME280;68944;48.262;14.208;2024-01-30T03:15:50;99951.47;;;-1.78;100.00
79481;BME280;68944;48.262;14.208;2024-01-30T03:18:15;99949.38;;;-1.86;100.00
79481;BME280;68944;48.262;14.208;2024-01-30T03:20:41;99950.31;;;-1.87;100.00
79481;BME280;68944;48.262;14.208;2024-01-30T03:23:07;99962.28;;;-1.84;100.00
79481;BME280;68944;48.262;14.208;2024-01-30T03:25:33;99958.72;;;-1.83;100.00
79481;BME280;68944;48.262;14.208;2024-01-30T03:27:58;99963.91;;;-1.83;100.00
79481;BME280;68944;48.262;14.208;2024-01-30T03:30:24;99953.63;;;-1.85;100.00
79481;BME280;68944;48.262;14.208;2024-01-30T03:32:49;99964.88;;;-1.84;100.00
79481;BME280;68944;48.262;14.208;2024-01-30T03:35:15;99961.25;;;-1.81;100.00
79481;BME280;68944;48.262;14.208;2024-01-30T03:37:41;99958.22;;;-1.88;100.00
79481;BME280;68944;48.262;14.208;2024-01-30T03:40:07;99956.94;;;-1.96;100.00
79481;BME280;68944;48.262;14.208;2024-01-30T03:42:32;99962.31;;;-1.99;100.00
79481;BME280;68944;48.262;14.208;2024-01-30T03:44:59;99963.53;;;-2.04;100.00
79481;BME280;68944;48.262;14.208;2024-01-30T03:47:24;99961.03;;;-2.06;100.00
79481;BME280;68944;48.262;14.208;2024-01-30T03:49:50;99953.53;;;-2.11;100.00
79481;BME280;68944;48.262;14.208;2024-01-30T03:52:15;99961.03;;;-2.06;100.00
79481;BME280;68944;48.262;14.208;2024-01-30T03:54:40;99961.03;;;-2.06;100.00
79481;BME280;68944;48.262;14.208;2024-01-30T03:57:06;99961.84;;;-2.06;100.00
79481;BME280;68944;48.262;14.208;2024-01-30T03:59:32;99973.09;;;-2.05;100.00
79481;BME280;68944;48.262;14.208;2024-01-30T04:01:58;99972.16;;;-2.04;100.00
79481;BME280;68944;48.262;14.208;2024-01-30T04:04:23;99970.50;;;-2.05;100.00
79481;BME280;68944;48.262;14.208;2024-01-30T04:06:49;99973.94;;;-2.04;100.00
79481;BME280;68944;48.262;14.208;2024-01-30T04:09:14;99972.91;;;-2.02;100.00
79481;BME280;68944;48.262;14.208;2024-01-30T04:11:41;99966.38;;;-1.95;100.00
79481;BME280;68944;48.262;14.208;2024-01-30T04:14:10;99971.50;;;-1.93;100.00
79481;BME280;68944;48.262;14.208;2024-01-30T04:16:36;99966.06;;;-1.90;100.00
79481;BME280;68944;48.262;14.208;2024-01-30T04:19:01;99971.38;;;-1.91;100.00
79481;BME280;68944;48.262;14.208;2024-01-30T04:21:27;99968.69;;;-1.90;100.00
79481;BME280;68944;48.262;14.208;2024-01-30T04:23:53;99968.59;;;-1.88;100.00
79481;BME280;68944;48.262;14.208;2024-01-30T04:26:18;99965.06;;;-1.87;100.00
79481;BME280;68944;48.262;14.208;2024-01-30T04:28:44;99965.06;;;-1.87;100.00
79481;BME280;68944;48.262;14.208;2024-01-30T04:31:10;99966.81;;;-1.88;100.00
79481;BME280;68944;48.262;14.208;2024-01-30T04:33:36;99964.97;;;-1.86;100.00
79481;BME280;68944;48.262;14.208;2024-01-30T04:36:02;99959.78;;;-1.86;100.00
79481;BME280;68944;48.262;14.208;2024-01-30T04:38:29;99965.91;;;-1.87;100.00
79481;BME280;68944;48.262;14.208;2024-01-30T04:40:54;99971.81;;;-1.85;100.00
79481;BME280;68944;48.262;14.208;2024-01-30T04:43:20;99970.06;;;-1.84;100.00
79481;BME280;68944;48.262;14.208;2024-01-30T04:45:45;99977.75;;;-1.83;100.00
79481;BME280;68944;48.262;14.208;2024-01-30T04:48:11;99971.72;;;-1.83;100.00
79481;BME280;68944;48.262;14.208;2024-01-30T04:50:36;99970.19;;;-1.86;100.00
79481;BME280;68944;48.262;14.208;2024-01-30T04:53:02;99968.50;;;-1.87;100.00
79481;BME280;68944;48.262;14.208;2024-01-30T04:55:27;99971.19;;;-1.88;100.00
79481;BME280;68944;48.262;14.208;2024-01-30T04:57:53;99964.44;;;-1.91;100.00
79481;BME280;68944;48.262;14.208;2024-01-30T05:00:18;99969.72;;;-1.92;100.00
79481;BME280;68944;48.262;14.208;2024-01-30T05:02:44;99970.03;;;-1.97;100.00
79481;BME280;68944;48.262;14.208;2024-01-30T05:05:09;99971.84;;;-1.99;100.00
79481;BME280;68944;48.262;14.208;2024-01-30T05:07:36;99981.44;;;-2.00;100.00
79481;BME280;68944;48.262;14.208;2024-01-30T05:10:02;99974.75;;;-2.04;100.00
79481;BME280;68944;48.262;14.208;2024-01-30T05:12:28;99974.22;;;-2.09;100.00
79481;BME280;68944;48.262;14.208;2024-01-30T05:14:54;99978.88;;;-2.14;100.00
79481;BME280;68944;48.262;14.208;2024-01-30T05:17:20;99980.16;;;-2.22;100.00
79481;BME280;68944;48.262;14.208;2024-01-30T05:19:46;99976.19;;;-2.27;100.00
79481;BME280;68944;48.262;14.208;2024-01-30T05:22:12;99980.84;;;-2.33;100.00
79481;BME280;68944;48.262;14.208;2024-01-30T05:24:41;99980.44;;;-2.41;100.00
79481;BME280;68944;48.262;14.208;2024-01-30T05:27:07;99985.13;;;-2.46;100.00
79481;BME280;68944;48.262;14.208;2024-01-30T05:29:33;99984.28;;;-2.47;100.00
79481;BME280;68944;48.262;14.208;2024-01-30T05:31:58;99988.34;;;-2.43;100.00
79481;BME280;68944;48.262;14.208;2024-01-30T05:34:24;99994.38;;;-2.42;100.00
79481;BME280;68944;48.262;14.208;2024-01-30T05:36:49;99992.81;;;-2.45;100.00
79481;BME280;68944;48.262;14.208;2024-01-30T05:39:15;100001.53;;;-2.46;100.00
79481;BME280;68944;48.262;14.208;2024-01-30T05:41:40;100002.63;;;-2.50;100.00
79481;BME280;68944;48.262;14.208;2024-01-30T05:44:06;100008.94;;;-2.54;100.00
79481;BME280;68944;48.262;14.208;2024-01-30T05:46:32;100008.94;;;-2.54;100.00
79481;BME280;68944;48.262;14.208;2024-01-30T05:48:58;100001.16;;;-2.54;100.00
79481;BME280;68944;48.262;14.208;2024-01-30T05:51:24;100004.00;;;-2.59;100.00
79481;BME280;68944;48.262;14.208;2024-01-30T05:53:49;100009.31;;;-2.60;100.00
79481;BME280;68944;48.262;14.208;2024-01-30T05:56:16;100016.34;;;-2.63;100.00
79481;BME280;68944;48.262;14.208;2024-01-30T05:58:41;100013.84;;;-2.64;100.00
79481;BME280;68944;48.262;14.208;2024-01-30T06:01:08;100020.88;;;-2.66;100.00
79481;BME280;68944;48.262;14.208;2024-01-30T06:03:34;100017.81;;;-2.73;100.00
79481;BME280;68944;48.262;14.208;2024-01-30T06:06:00;100019.75;;;-2.77;100.00
79481;BME280;68944;48.262;14.208;2024-01-30T06:08:25;100021.78;;;-2.82;100.00
79481;BME280;68944;48.262;14.208;2024-01-30T06:10:50;100021.97;;;-2.85;100.00
79481;BME280;68944;48.262;14.208;2024-01-30T06:13:16;100021.78;;;-2.82;100.00
79481;BME280;68944;48.262;14.208;2024-01-30T06:15:41;100017.88;;;-2.89;100.00
79481;BME280;68944;48.262;14.208;2024-01-30T06:18:07;100012.41;;;-2.99;100.00
79481;BME280;68944;48.262;14.208;2024-01-30T06:20:32;100027.41;;;-3.04;100.00
79481;BME280;68944;48.262;14.208;2024-01-30T06:22:58;100031.09;;;-3.09;100.00
79481;BME280;68944;48.262;14.208;2024-01-30T06:25:24;100033.47;;;-3.20;100.00
79481;BME280;68944;48.262;14.208;2024-01-30T06:27:49;100035.81;;;-3.15;100.00
79481;BME280;68944;48.262;14.208;2024-01-30T06:30:15;100041.81;;;-3.15;100.00
79481;BME280;68944;48.262;14.208;2024-01-30T06:32:40;100043.28;;;-3.11;100.00
79481;BME280;68944;48.262;14.208;2024-01-30T06:35:06;100032.75;;;-3.08;100.00
79481;BME280;68944;48.262;14.208;2024-01-30T06:37:32;100025.25;;;-3.12;100.00
79481;BME280;68944;48.262;14.208;2024-01-30T06:39:57;100027.00;;;-3.13;100.00
79481;BME280;68944;48.262;14.208;2024-01-30T06:42:23;100038.94;;;-3.10;100.00
79481;BME280;68944;48.262;14.208;2024-01-30T06:44:48;100027.66;;;-3.09;100.00
79481;BME280;68944;48.262;14.208;2024-01-30T06:47:13;100017.03;;;-3.04;100.00
79481;BME280;68944;48.262;14.208;2024-01-30T06:49:39;100014.25;;;-3.01;100.00
79481;BME280;68944;48.262;14.208;2024-01-30T06:52:08;100020.09;;;-2.98;100.00
79481;BME280;68944;48.262;14.208;2024-01-30T06:54:34;100020.00;;;-2.96;100.00
79481;BME280;68944;48.262;14.208;2024-01-30T06:56:59;100011.94;;;-2.91;100.00
79481;BME280;68944;48.262;14.208;2024-01-30T06:59:25;100015.56;;;-2.94;100.00
79481;BME280;68944;48.262;14.208;2024-01-30T07:01:51;100018.16;;;-2.94;100.00
79481;BME280;68944;48.262;14.208;2024-01-30T07:04:16;100019.84;;;-2.93;100.00
79481;BME280;68944;48.262;14.208;2024-01-30T07:06:43;100027.97;;;-2.99;100.00
79481;BME280;68944;48.262;14.208;2024-01-30T07:09:09;100043.28;;;-3.11;100.00
79481;BME280;68944;48.262;14.208;2024-01-30T07:11:34;100037.38;;;-3.13;100.00
79481;BME280;68944;48.262;14.208;2024-01-30T07:13:59;100041.63;;;-3.12;100.00
79481;BME280;68944;48.262;14.208;2024-01-30T07:16:25;100052.00;;;-3.12;100.00
79481;BME280;68944;48.262;14.208;2024-01-30T07:18:51;100039.22;;;-3.15;100.00
79481;BME280;68944;48.262;14.208;2024-01-30T07:21:16;100046.41;;;-3.04;100.00
79481;BME280;68944;48.262;14.208;2024-01-30T07:23:42;100048.16;;;-3.04;100.00
79481;BME280;68944;48.262;14.208;2024-01-30T07:26:08;100047.03;;;-3.00;100.00
79481;BME280;68944;48.262;14.208;2024-01-30T07:28:35;100057.81;;;-2.92;100.00
79481;BME280;68944;48.262;14.208;2024-01-30T07:31:01;100066.63;;;-2.80;100.00
79481;BME280;68944;48.262;14.208;2024-01-30T07:33:27;100067.59;;;-2.66;100.00
79481;BME280;68944;48.262;14.208;2024-01-30T07:35:53;100067.88;;;-2.56;100.00
79481;BME280;68944;48.262;14.208;2024-01-30T07:38:19;100071.22;;;-2.54;100.00
79481;BME280;68944;48.262;14.208;2024-01-30T07:40:44;100069.19;;;-2.49;100.00
79481;BME280;68944;48.262;14.208;2024-01-30T07:43:10;100077.16;;;-2.52;100.00
79481;BME280;68944;48.262;14.208;2024-01-30T07:45:36;100076.88;;;-2.47;100.00
79481;BME280;68944;48.262;14.208;2024-01-30T07:48:03;100074.00;;;-2.43;100.00
79481;BME280;68944;48.262;14.208;2024-01-30T07:50:28;100079.88;;;-2.39;100.00
79481;BME280;68944;48.262;14.208;2024-01-30T07:52:56;100086.44;;;-2.33;100.00
79481;BME280;68944;48.262;14.208;2024-01-30T07:55:22;100085.06;;;-2.24;100.00
79481;BME280;68944;48.262;14.208;2024-01-30T07:57:57;100087.47;;;-2.21;100.00
79481;BME280;68944;48.262;14.208;2024-01-30T08:00:24;100102.69;;;-2.15;100.00
79481;BME280;68944;48.262;14.208;2024-01-30T08:02:51;100089.13;;;-2.06;100.00
79481;BME280;68944;48.262;14.208;2024-01-30T08:05:19;100089.31;;;-1.94;100.00
79481;BME280;68944;48.262;14.208;2024-01-30T08:07:47;100094.91;;;-1.86;100.00
79481;BME280;68944;48.262;14.208;2024-01-30T08:10:14;100095.88;;;-1.74;100.00
79481;BME280;68944;48.262;14.208;2024-01-30T08:12:39;100095.41;;;-1.66;100.00
79481;BME280;68944;48.262;14.208;2024-01-30T08:15:05;100103.03;;;-1.63;100.00
79481;BME280;68944;48.262;14.208;2024-01-30T08:17:31;100097.53;;;-1.58;100.00
79481;BME280;68944;48.262;14.208;2024-01-30T08:19:57;100094.09;;;-1.58;100.00
79481;BME280;68944;48.262;14.208;2024-01-30T08:22:22;100096.41;;;-1.54;100.00
79481;BME280;68944;48.262;14.208;2024-01-30T08:24:48;100098.63;;;-1.47;100.00
79481;BME280;68944;48.262;14.208;2024-01-30T08:27:13;100098.97;;;-1.39;100.00
79481;BME280;68944;48.262;14.208;2024-01-30T08:29:39;100096.28;;;-1.38;100.00
79481;BME280;68944;48.262;14.208;2024-01-30T08:32:05;100095.25;;;-1.35;100.00
79481;BME280;68944;48.262;14.208;2024-01-30T08:34:31;100102.09;;;-1.34;100.00
79481;BME280;68944;48.262;14.208;2024-01-30T08:36:56;100105.53;;;-1.33;100.00
79481;BME280;68944;48.262;14.208;2024-01-30T08:39:22;100104.19;;;-1.39;100.00
79481;BME280;68944;48.262;14.208;2024-01-30T08:41:47;100109.81;;;-1.32;100.00
79481;BME280;68944;48.262;14.208;2024-01-30T08:44:13;100108.59;;;-1.27;100.00
79481;BME280;68944;48.262;14.208;2024-01-30T08:46:38;100107.06;;;-1.16;100.00
79481;BME280;68944;48.262;14.208;2024-01-30T08:49:04;100108.53;;;-1.12;100.00
79481;BME280;68944;48.262;14.208;2024-01-30T08:51:30;100109.28;;;-1.10;100.00
79481;BME280;68944;48.262;14.208;2024-01-30T08:53:56;100107.41;;;-1.08;100.00
79481;BME280;68944;48.262;14.208;2024-01-30T08:56:22;100105.25;;;-1.01;100.00
79481;BME280;68944;48.262;14.208;2024-01-30T08:58:48;100107.00;;;-1.01;100.00
79481;BME280;68944;48.262;14.208;2024-01-30T09:01:14;100111.16;;;-0.99;100.00
79481;BME280;68944;48.262;14.208;2024-01-30T09:03:39;100108.16;;;-0.93;100.00
79481;BME280;68944;48.262;14.208;2024-01-30T09:06:10;100103.06;;;-0.94;100.00
79481;BME280;68944;48.262;14.208;2024-01-30T09:08:36;100105.47;;;-0.91;100.00
79481;BME280;68944;48.262;14.208;2024-01-30T09:11:11;100110.16;;;-0.83;100.00
79481;BME280;68944;48.262;14.208;2024-01-30T09:13:37;100115.78;;;-0.76;100.00
79481;BME280;68944;48.262;14.208;2024-01-30T09:16:03;100113.97;;;-0.74;100.00
79481;BME280;68944;48.262;14.208;2024-01-30T09:18:29;100111.34;;;-0.74;100.00
79481;BME280;68944;48.262;14.208;2024-01-30T09:20:54;100108.53;;;-0.71;100.00
79481;BME280;68944;48.262;14.208;2024-01-30T09:23:19;100108.28;;;-0.81;100.00
79481;BME280;68944;48.262;14.208;2024-01-30T09:25:45;100114.25;;;-0.79;100.00
79481;BME280;68944;48.262;14.208;2024-01-30T09:28:11;100102.34;;;-0.83;100.00
79481;BME280;68944;48.262;14.208;2024-01-30T09:30:36;100105.66;;;-0.94;100.00
79481;BME280;68944;48.262;14.208;2024-01-30T09:33:02;100109.22;;;-0.95;100.00
79481;BME280;68944;48.262;14.208;2024-01-30T09:35:27;100115.84;;;-1.04;100.00
79481;BME280;68944;48.262;14.208;2024-01-30T09:37:54;100110.88;;;-0.94;100.00
79481;BME280;68944;48.262;14.208;2024-01-30T09:40:19;100120.38;;;-0.93;100.00
79481;BME280;68944;48.262;14.208;2024-01-30T09:42:50;100115.06;;;-0.92;100.00
79481;BME280;68944;48.262;14.208;2024-01-30T09:45:17;100115.59;;;-0.86;100.00
79481;BME280;68944;48.262;14.208;2024-01-30T09:47:44;100115.06;;;-0.78;100.00
79481;BME280;68944;48.262;14.208;2024-01-30T09:50:13;100118.03;;;-0.70;100.00
79481;BME280;68944;48.262;14.208;2024-01-30T09:52:39;100102.19;;;-0.67;100.00
79481;BME280;68944;48.262;14.208;2024-01-30T09:55:06;100107.72;;;-0.59;100.00
79481;BME280;68944;48.262;14.208;2024-01-30T09:57:32;100109.78;;;-0.51;100.00
79481;BME280;68944;48.262;14.208;2024-01-30T09:59:58;100104.16;;;-0.58;100.00
79481;BME280;68944;48.262;14.208;2024-01-30T10:02:23;100104.50;;;-0.49;100.00
79481;BME280;68944;48.262;14.208;2024-01-30T10:04:50;100108.38;;;-0.42;100.00
79481;BME280;68944;48.262;14.208;2024-01-30T10:07:16;100107.94;;;-0.36;100.00
79481;BME280;68944;48.262;14.208;2024-01-30T10:09:42;100110.44;;;-0.47;100.00
79481;BME280;68944;48.262;14.208;2024-01-30T10:12:08;100108.34;;;-0.55;100.00
79481;BME280;68944;48.262;14.208;2024-01-30T10:14:37;100109.91;;;-0.52;100.00
79481;BME280;68944;48.262;14.208;2024-01-30T10:17:03;100115.44;;;-0.44;100.00
79481;BME280;68944;48.262;14.208;2024-01-30T10:19:29;100107.63;;;-0.44;100.00
79481;BME280;68944;48.262;14.208;2024-01-30T10:21:54;100109.28;;;-0.43;100.00
79481;BME280;68944;48.262;14.208;2024-01-30T10:24:24;100095.84;;;-0.37;100.00
79481;BME280;68944;48.262;14.208;2024-01-30T10:26:50;100093.56;;;-0.41;100.00
79481;BME280;68944;48.262;14.208;2024-01-30T10:29:16;100099.31;;;-0.49;100.00
79481;BME280;68944;48.262;14.208;2024-01-30T10:31:42;100094.28;;;-0.39;100.00
79481;BME280;68944;48.262;14.208;2024-01-30T10:34:07;100090.63;;;-0.37;100.00
79481;BME280;68944;48.262;14.208;2024-01-30T10:36:39;100080.03;;;-0.33;100.00
79481;BME280;68944;48.262;14.208;2024-01-30T10:39:06;100082.81;;;-0.37;100.00
79481;BME280;68944;48.262;14.208;2024-01-30T10:41:39;100070.44;;;-0.33;100.00
79481;BME280;68944;48.262;14.208;2024-01-30T10:44:09;100074.94;;;-0.35;100.00
79481;BME280;68944;48.262;14.208;2024-01-30T10:46:35;100076.69;;;-0.36;100.00
79481;BME280;68944;48.262;14.208;2024-01-30T10:49:02;100069.50;;;-0.32;100.00
79481;BME280;68944;48.262;14.208;2024-01-30T10:51:28;100071.25;;;-0.19;100.00
79481;BME280;68944;48.262;14.208;2024-01-30T10:53:55;100068.66;;;-0.19;100.00
79481;BME280;68944;48.262;14.208;2024-01-30T10:56:21;100064.78;;;-0.14;100.00
79481;BME280;68944;48.262;14.208;2024-01-30T10:58:54;100071.88;;;-0.16;100.00
79481;BME280;68944;48.262;14.208;2024-01-30T11:01:22;100058.53;;;-0.11;100.00
79481;BME280;68944;48.262;14.208;2024-01-30T11:03:52;100054.16;;;-0.10;100.00
79481;BME280;68944;48.262;14.208;2024-01-30T11:06:22;100047.50;;;-0.15;100.00
79481;BME280;68944;48.262;14.208;2024-01-30T11:09:02;100046.94;;;-0.07;100.00
79481;BME280;68944;48.262;14.208;2024-01-30T11:11:51;100049.78;;;-0.10;100.00
79481;BME280;68944;48.262;14.208;2024-01-30T11:14:24;100050.63;;;-0.09;100.00
79481;BME280;68944;48.262;14.208;2024-01-30T11:16:51;100054.56;;;-0.04;100.00
79481;BME280;68944;48.262;14.208;2024-01-30T11:19:25;100043.94;;;-0.01;100.00
79481;BME280;68944;48.262;14.208;2024-01-30T11:21:52;100049.34;;;-0.04;100.00
79481;BME280;68944;48.262;14.208;2024-01-30T11:24:23;100039.34;;;-0.10;100.00
79481;BME280;68944;48.262;14.208;2024-01-30T11:27:09;100038.00;;;-0.16;100.00
79481;BME280;68944;48.262;14.208;2024-01-30T11:29:37;100028.94;;;-0.10;100.00
79481;BME280;68944;48.262;14.208;2024-01-30T11:32:03;100036.19;;;-0.02;100.00
79481;BME280;68944;48.262;14.208;2024-01-30T11:34:30;100028.38;;;-0.02;100.00
79481;BME280;68944;48.262;14.208;2024-01-30T11:37:01;100032.88;;;-0.04;100.00
79481;BME280;68944;48.262;14.208;2024-01-30T11:39:29;100028.63;;;-0.05;100.00
79481;BME280;68944;48.262;14.208;2024-01-30T11:41:55;100037.66;;;0.02;100.00
79481;BME280;68944;48.262;14.208;2024-01-30T11:44:21;100039.13;;;0.06;100.00
79481;BME280;68944;48.262;14.208;2024-01-30T11:46:51;100033.47;;;0.13;100.00
79481;BME280;68944;48.262;14.208;2024-01-30T11:49:17;100026.38;;;0.15;100.00
79481;BME280;68944;48.262;14.208;2024-01-30T11:51:45;100027.00;;;0.05;100.00
79481;BME280;68944;48.262;14.208;2024-01-30T11:54:11;100025.53;;;0.14;100.00
79481;BME280;68944;48.262;14.208;2024-01-30T11:56:37;100027.06;;;0.17;100.00
79481;BME280;68944;48.262;14.208;2024-01-30T11:59:06;100029.59;;;0.18;100.00
79481;BME280;68944;48.262;14.208;2024-01-30T12:01:31;100012.66;;;0.24;100.00
79481;BME280;68944;48.262;14.208;2024-01-30T12:04:01;100012.34;;;0.29;100.00
79481;BME280;68944;48.262;14.208;2024-01-30T12:06:27;100004.84;;;0.24;100.00
79481;BME280;68944;48.262;14.208;2024-01-30T12:09:00;100005.34;;;0.29;100.00
79481;BME280;68944;48.262;14.208;2024-01-30T12:11:27;100004.41;;;0.30;100.00
79481;BME280;68944;48.262;14.208;2024-01-30T12:13:55;100000.91;;;0.18;100.00
79481;BME280;68944;48.262;14.208;2024-01-30T12:16:21;99996.97;;;0.13;100.00
79481;BME280;68944;48.262;14.208;2024-01-30T12:18:47;99998.31;;;0.18;100.00
79481;BME280;68944;48.262;14.208;2024-01-30T12:21:16;99995.91;;;0.15;100.00
79481;BME280;68944;48.262;14.208;2024-01-30T12:23:41;99989.66;;;0.18;100.00
79481;BME280;68944;48.262;14.208;2024-01-30T12:26:07;99998.41;;;0.17;100.00
79481;BME280;68944;48.262;14.208;2024-01-30T12:28:33;99985.88;;;0.22;100.00
79481;BME280;68944;48.262;14.208;2024-01-30T12:31:05;99990.03;;;0.25;100.00